sensor_id;sensor_type;location;lat;lon;timestamp;pressure;altitude;pressure_sealevel;temperature;humidity
67377;BME280;54261;46.086;6.588;2024-02-26T00:01:04;90704.56;;;-2.33;75.19
67377;BME280;54261;46.086;6.588;2024-02-26T00:06:06;90727.09;;;-2.27;74.75
67377;BME280;54261;46.086;6.588;2024-02-26T00:11:08;90720.03;;;-2.56;74.76
67377;BME280;54261;46.086;6.588;2024-02-26T00:16:10;90712.28;;;-1.74;71.51
67377;BME280;54261;46.086;6.588;2024-02-26T00:21:12;90711.31;;;-0.45;66.45
67377;BME280;54261;46.086;6.588;2024-02-26T00:26:14;90712.31;;;-1.22;69.45
67377;BME280;54261;46.086;6.588;2024-02-26T00:31:17;90714.25;;;-1.27;68.79
67377;BME280;54261;46.086;6.588;2024-02-26T00:36:18;90707.59;;;-1.05;68.78
67377;BME280;54261;46.086;6.588;2024-02-26T00:41:20;90711.41;;;-1.31;70.99
67377;BME280;54261;46.086;6.588;2024-02-26T00:46:23;90718.25;;;-1.49;69.87
67377;BME280;54261;46.086;6.588;2024-02-26T00:51:25;90719.53;;;-1.27;69.72
67377;BME280;54261;46.086;6.588;2024-02-26T00:56:27;90713.63;;;-1.96;70.91
67377;BME280;54261;46.086;6.588;2024-02-26T01:01:29;90707.44;;;-1.86;71.08
67377;BME280;54261;46.086;6.588;2024-02-26T01:06:31;90720.31;;;-2.09;70.52
67377;BME280;54261;46.086;6.588;2024-02-26T01:11:33;90720.63;;;-1.14;70.17
67377;BME280;54261;46.086;6.588;2024-02-26T01:16:35;90724.84;;;-0.80;65.92
67377;BME280;54261;46.086;6.588;2024-02-26T01:21:37;90739.56;;;-0.79;66.05
67377;BME280;54261;46.086;6.588;2024-02-26T01:26:39;90730.75;;;-1.22;69.72
67377;BME280;54261;46.086;6.588;2024-02-26T01:31:40;90719.69;;;-0.71;67.80
67377;BME280;54261;46.086;6.588;2024-02-26T01:36:42;90725.69;;;-0.10;65.52
67377;BME280;54261;46.086;6.588;2024-02-26T01:41:44;90725.75;;;0.78;61.92
67377;BME280;54261;46.086;6.588;2024-02-26T01:46:47;90724.56;;;1.30;63.89
67377;BME280;54261;46.086;6.588;2024-02-26T01:51:49;90735.03;;;0.53;63.01
67377;BME280;54261;46.086;6.588;2024-02-26T01:56:51;90723.69;;;1.43;64.97
67377;BME280;54261;46.086;6.588;2024-02-26T02:01:55;90722.34;;;0.27;67.82
67377;BME280;54261;46.086;6.588;2024-02-26T02:07:00;90724.09;;;0.17;67.20
67377;BME280;54261;46.086;6.588;2024-02-26T02:12:02;90719.22;;;0.11;65.61
67377;BME280;54261;46.086;6.588;2024-02-26T02:17:04;90705.56;;;1.28;64.19
67377;BME280;54261;46.086;6.588;2024-02-26T02:22:06;90709.13;;;0.78;63.39
67377;BME280;54261;46.086;6.588;2024-02-26T02:27:08;90711.16;;;0.44;62.00
67377;BME280;54261;46.086;6.588;2024-02-26T02:32:10;90695.50;;;-0.45;64.95
67377;BME280;54261;46.086;6.588;2024-02-26T02:37:12;90702.81;;;-0.00;66.85
67377;BME280;54261;46.086;6.588;2024-02-26T02:42:14;90706.66;;;0.44;64.49
67377;BME280;54261;46.086;6.588;2024-02-26T02:47:16;90704.09;;;-0.40;65.32
67377;BME280;54261;46.086;6.588;2024-02-26T02:52:18;90696.69;;;-1.51;69.03
67377;BME280;54261;46.086;6.588;2024-02-26T02:57:20;90700.00;;;-0.32;66.57
67377;BME280;54261;46.086;6.588;2024-02-26T03:02:22;90704.75;;;0.22;64.50
67377;BME280;54261;46.086;6.588;2024-02-26T03:07:26;90686.91;;;-0.09;67.44
67377;BME280;54261;46.086;6.588;2024-02-26T03:12:29;90661.09;;;0.98;63.18
67377;BME280;54261;46.086;6.588;2024-02-26T03:17:31;90654.63;;;-1.18;66.47
67377;BME280;54261;46.086;6.588;2024-02-26T03:22:33;90663.66;;;-1.24;68.70
67377;BME280;54261;46.086;6.588;2024-02-26T03:27:35;90649.69;;;-1.58;73.11
67377;BME280;54261;46.086;6.588;2024-02-26T03:32:37;90668.31;;;0.47;72.73
67377;BME280;54261;46.086;6.588;2024-02-26T03:37:39;90676.94;;;-0.82;75.43
67377;BME280;54261;46.086;6.588;2024-02-26T03:42:41;90664.41;;;0.08;65.93
67377;BME280;54261;46.086;6.588;2024-02-26T03:47:43;90683.28;;;-0.13;70.87
67377;BME280;54261;46.086;6.588;2024-02-26T03:52:46;90676.09;;;1.12;64.40
67377;BME280;54261;46.086;6.588;2024-02-26T03:57:47;90648.63;;;1.22;60.96
67377;BME280;54261;46.086;6.588;2024-02-26T04:02:49;90656.69;;;0.48;67.93
67377;BME280;54261;46.086;6.588;2024-02-26T04:07:51;90628.94;;;0.73;64.35
67377;BME280;54261;46.086;6.588;2024-02-26T04:12:53;90642.16;;;-0.98;67.79
67377;BME280;54261;46.086;6.588;2024-02-26T04:17:55;90629.38;;;-1.71;69.73
67377;BME280;54261;46.086;6.588;2024-02-26T04:22:57;90654.47;;;-1.60;69.70
67377;BME280;54261;46.086;6.588;2024-02-26T04:27:59;90636.19;;;-0.06;65.39
67377;BME280;54261;46.086;6.588;2024-02-26T04:33:01;90636.25;;;-1.56;70.69
67377;BME280;54261;46.086;6.588;2024-02-26T04:38:03;90634.47;;;-0.39;68.60
67377;BME280;54261;46.086;6.588;2024-02-26T04:43:05;90634.91;;;0.42;62.85
67377;BME280;54261;46.086;6.588;2024-02-26T04:48:07;90635.34;;;-1.85;71.80
67377;BME280;54261;46.086;6.588;2024-02-26T04:53:09;90617.31;;;-0.92;67.95
67377;BME280;54261;46.086;6.588;2024-02-26T04:58:11;90626.47;;;-1.37;68.24
67377;BME280;54261;46.086;6.588;2024-02-26T05:03:13;90601.59;;;-0.83;68.04
67377;BME280;54261;46.086;6.588;2024-02-26T05:08:17;90570.41;;;-1.70;69.30
67377;BME280;54261;46.086;6.588;2024-02-26T05:13:19;90576.81;;;-2.53;71.17
67377;BME280;54261;46.086;6.588;2024-02-26T05:18:21;90550.94;;;-1.22;67.88
67377;BME280;54261;46.086;6.588;2024-02-26T05:23:23;90589.41;;;-1.40;68.25
67377;BME280;54261;46.086;6.588;2024-02-26T05:28:25;90587.31;;;-0.40;64.54
67377;BME280;54261;46.086;6.588;2024-02-26T05:33:27;90594.41;;;-0.27;64.97
67377;BME280;54261;46.086;6.588;2024-02-26T05:38:29;90606.72;;;-0.22;68.42
67377;BME280;54261;46.086;6.588;2024-02-26T05:43:33;90594.38;;;-0.91;66.39
67377;BME280;54261;46.086;6.588;2024-02-26T05:48:34;90586.94;;;1.35;61.88
67377;BME280;54261;46.086;6.588;2024-02-26T05:53:37;90584.34;;;2.55;56.71
67377;BME280;54261;46.086;6.588;2024-02-26T05:58:38;90583.69;;;2.31;56.70
67377;BME280;54261;46.086;6.588;2024-02-26T06:03:40;90595.38;;;2.66;55.95
67377;BME280;54261;46.086;6.588;2024-02-26T06:08:42;90620.00;;;2.40;56.01
67377;BME280;54261;46.086;6.588;2024-02-26T06:13:44;90618.44;;;2.39;53.80
67377;BME280;54261;46.086;6.588;2024-02-26T06:18:46;90625.34;;;3.32;53.89
67377;BME280;54261;46.086;6.588;2024-02-26T06:23:48;90630.13;;;3.47;53.52
67377;BME280;54261;46.086;6.588;2024-02-26T06:28:51;90636.19;;;2.91;56.37
67377;BME280;54261;46.086;6.588;2024-02-26T06:33:54;90627.75;;;2.10;58.55
67377;BME280;54261;46.086;6.588;2024-02-26T06:38:57;90645.03;;;2.16;58.13
67377;BME280;54261;46.086;6.588;2024-02-26T06:43:59;90628.22;;;2.03;56.58
67377;BME280;54261;46.086;6.588;2024-02-26T06:49:01;90623.97;;;1.03;59.61
67377;BME280;54261;46.086;6.588;2024-02-26T06:54:04;90619.06;;;1.51;58.38
67377;BME280;54261;46.086;6.588;2024-02-26T06:59:06;90641.00;;;2.36;56.75
67377;BME280;54261;46.086;6.588;2024-02-26T07:04:08;90622.59;;;0.83;59.18
67377;BME280;54261;46.086;6.588;2024-02-26T07:09:10;90612.13;;;0.10;62.00
67377;BME280;54261;46.086;6.588;2024-02-26T07:14:14;90617.69;;;0.91;61.41
67377;BME280;54261;46.086;6.588;2024-02-26T07:19:16;90644.97;;;-1.42;65.33
67377;BME280;54261;46.086;6.588;2024-02-26T07:24:18;90645.41;;;-2.30;70.22
67377;BME280;54261;46.086;6.588;2024-02-26T07:29:20;90597.19;;;-1.02;63.49
67377;BME280;54261;46.086;6.588;2024-02-26T07:34:22;90623.00;;;-1.51;66.24
67377;BME280;54261;46.086;6.588;2024-02-26T07:39:29;90633.06;;;-1.06;65.11
67377;BME280;54261;46.086;6.588;2024-02-26T07:44:32;90648.44;;;-1.99;67.17
67377;BME280;54261;46.086;6.588;2024-02-26T07:49:34;90653.03;;;-0.72;67.10
67377;BME280;54261;46.086;6.588;2024-02-26T07:54:40;90626.53;;;-1.09;64.46
67377;BME280;54261;46.086;6.588;2024-02-26T07:59:42;90628.91;;;-0.79;63.46
67377;BME280;54261;46.086;6.588;2024-02-26T08:04:44;90644.44;;;-1.25;64.28
67377;BME280;54261;46.086;6.588;2024-02-26T08:09:46;90602.09;;;0.80;57.94
67377;BME280;54261;46.086;6.588;2024-02-26T08:14:48;90606.09;;;1.00;59.47
67377;BME280;54261;46.086;6.588;2024-02-26T08:19:50;90593.00;;;1.27;57.62
67377;BME280;54261;46.086;6.588;2024-02-26T08:24:52;90620.00;;;0.46;57.33
67377;BME280;54261;46.086;6.588;2024-02-26T08:29:53;90609.47;;;-0.27;60.94
67377;BME280;54261;46.086;6.588;2024-02-26T08:34:55;90617.72;;;1.31;55.75
67377;BME280;54261;46.086;6.588;2024-02-26T08:39:58;90617.00;;;0.76;55.82
67377;BME280;54261;46.086;6.588;2024-02-26T08:45:04;90609.47;;;0.46;59.35
67377;BME280;54261;46.086;6.588;2024-02-26T08:50:06;90609.09;;;0.39;56.13
67377;BME280;54261;46.086;6.588;2024-02-26T08:55:08;90622.97;;;-0.57;58.95
67377;BME280;54261;46.086;6.588;2024-02-26T09:00:11;90638.44;;;-0.97;61.60
67377;BME280;54261;46.086;6.588;2024-02-26T09:05:13;90623.09;;;0.03;57.49
67377;BME280;54261;46.086;6.588;2024-02-26T09:10:15;90636.47;;;0.07;58.50
67377;BME280;54261;46.086;6.588;2024-02-26T09:15:17;90650.47;;;-0.07;58.17
67377;BME280;54261;46.086;6.588;2024-02-26T09:20:19;90655.16;;;-0.04;59.00
67377;BME280;54261;46.086;6.588;2024-02-26T09:25:22;90627.88;;;1.38;55.21
67377;BME280;54261;46.086;6.588;2024-02-26T09:30:23;90648.28;;;1.95;52.35
67377;BME280;54261;46.086;6.588;2024-02-26T09:35:25;90659.28;;;1.08;54.73
67377;BME280;54261;46.086;6.588;2024-02-26T09:40:28;90642.91;;;0.51;54.83
67377;BME280;54261;46.086;6.588;2024-02-26T09:45:33;90636.03;;;-0.24;55.93
67377;BME280;54261;46.086;6.588;2024-02-26T09:50:35;90659.78;;;-0.24;55.36
67377;BME280;54261;46.086;6.588;2024-02-26T09:55:38;90619.41;;;-0.10;57.93
67377;BME280;54261;46.086;6.588;2024-02-26T10:00:41;90663.00;;;0.24;55.50
67377;BME280;54261;46.086;6.588;2024-02-26T10:05:44;90668.31;;;0.47;55.43
67377;BME280;54261;46.086;6.588;2024-02-26T10:10:46;90670.63;;;1.71;53.62
67377;BME280;54261;46.086;6.588;2024-02-26T10:15:48;90657.25;;;1.36;52.46
67377;BME280;54261;46.086;6.588;2024-02-26T10:21:03;90680.31;;;1.44;56.27
67377;BME280;54261;46.086;6.588;2024-02-26T10:26:06;90661.91;;;1.80;55.34
67377;BME280;54261;46.086;6.588;2024-02-26T10:31:10;90663.97;;;1.83;52.17
67377;BME280;54261;46.086;6.588;2024-02-26T10:36:12;90691.06;;;0.94;51.10
67377;BME280;54261;46.086;6.588;2024-02-26T10:41:14;90681.34;;;2.24;48.99
67377;BME280;54261;46.086;6.588;2024-02-26T10:46:17;90705.28;;;2.19;50.52
67377;BME280;54261;46.086;6.588;2024-02-26T10:51:25;90699.13;;;3.21;47.74
67377;BME280;54261;46.086;6.588;2024-02-26T10:56:28;90685.91;;;3.03;47.51
67377;BME280;54261;46.086;6.588;2024-02-26T11:01:30;90680.31;;;1.85;48.69
67377;BME280;54261;46.086;6.588;2024-02-26T11:06:37;90701.97;;;1.24;51.75
67377;BME280;54261;46.086;6.588;2024-02-26T11:11:40;90699.00;;;2.99;47.62
67377;BME280;54261;46.086;6.588;2024-02-26T11:16:43;90702.75;;;2.54;49.70
67377;BME280;54261;46.086;6.588;2024-02-26T11:21:45;90709.13;;;2.89;50.66
67377;BME280;54261;46.086;6.588;2024-02-26T11:26:54;90676.34;;;2.31;52.58
67377;BME280;54261;46.086;6.588;2024-02-26T11:32:03;90705.31;;;3.42;51.86
67377;BME280;54261;46.086;6.588;2024-02-26T11:37:13;90684.19;;;1.15;57.35
67377;BME280;54261;46.086;6.588;2024-02-26T11:42:16;90690.03;;;2.25;54.47
67377;BME280;54261;46.086;6.588;2024-02-26T11:47:19;90677.94;;;3.68;50.01
67377;BME280;54261;46.086;6.588;2024-02-26T11:52:21;90680.47;;;2.47;53.94
67377;BME280;54261;46.086;6.588;2024-02-26T11:57:30;90672.19;;;3.96;48.38
67377;BME280;54261;46.086;6.588;2024-02-26T12:02:44;90671.56;;;3.13;48.59
67377;BME280;54261;46.086;6.588;2024-02-26T12:07:54;90665.47;;;3.04;51.79
67377;BME280;54261;46.086;6.588;2024-02-26T12:13:07;90657.88;;;4.49;49.53
67377;BME280;54261;46.086;6.588;2024-02-26T12:18:15;90646.72;;;4.98;44.63
67377;BME280;54261;46.086;6.588;2024-02-26T12:23:17;90648.88;;;4.83;46.01
67377;BME280;54261;46.086;6.588;2024-02-26T12:28:19;90652.50;;;2.23;54.49
67377;BME280;54261;46.086;6.588;2024-02-26T12:33:21;90672.34;;;1.76;55.15
67377;BME280;54261;46.086;6.588;2024-02-26T12:38:24;90668.63;;;1.86;53.02
67377;BME280;54261;46.086;6.588;2024-02-26T12:43:26;90667.47;;;2.36;53.08
67377;BME280;54261;46.086;6.588;2024-02-26T12:48:27;90661.88;;;5.65;45.33
67377;BME280;54261;46.086;6.588;2024-02-26T12:53:30;90664.81;;;4.11;51.85
67377;BME280;54261;46.086;6.588;2024-02-26T12:58:32;90661.00;;;2.60;53.83
67377;BME280;54261;46.086;6.588;2024-02-26T13:03:35;90664.59;;;4.25;49.72
67377;BME280;54261;46.086;6.588;2024-02-26T13:08:38;90671.63;;;5.61;46.73
67377;BME280;54261;46.086;6.588;2024-02-26T13:13:40;90678.97;;;5.76;45.90
67377;BME280;54261;46.086;6.588;2024-02-26T13:18:42;90673.22;;;5.87;46.46
67377;BME280;54261;46.086;6.588;2024-02-26T13:23:48;90660.56;;;3.80;50.98
67377;BME280;54261;46.086;6.588;2024-02-26T13:29:02;90669.34;;;4.40;49.59
67377;BME280;54261;46.086;6.588;2024-02-26T13:34:05;90672.06;;;4.74;49.95
67377;BME280;54261;46.086;6.588;2024-02-26T13:39:07;90669.56;;;4.05;46.65
67377;BME280;54261;46.086;6.588;2024-02-26T13:44:13;90665.66;;;3.55;49.22
67377;BME280;54261;46.086;6.588;2024-02-26T13:49:15;90664.47;;;4.42;46.48
67377;BME280;54261;46.086;6.588;2024-02-26T13:54:17;90658.31;;;3.61;48.11
67377;BME280;54261;46.086;6.588;2024-02-26T13:59:19;90671.75;;;4.97;47.73
67377;BME280;54261;46.086;6.588;2024-02-26T14:04:21;90671.81;;;5.09;45.57
67377;BME280;54261;46.086;6.588;2024-02-26T14:09:23;90648.66;;;4.89;47.10
67377;BME280;54261;46.086;6.588;2024-02-26T14:14:36;90671.50;;;5.23;45.63
67377;BME280;54261;46.086;6.588;2024-02-26T14:19:41;90680.63;;;6.56;41.72
67377;BME280;54261;46.086;6.588;2024-02-26T14:24:46;90666.44;;;5.77;42.80
67377;BME280;54261;46.086;6.588;2024-02-26T14:29:48;90693.06;;;7.17;39.38
67377;BME280;54261;46.086;6.588;2024-02-26T14:34:50;90694.06;;;7.25;38.66
67377;BME280;54261;46.086;6.588;2024-02-26T14:39:52;90699.25;;;6.68;39.77
67377;BME280;54261;46.086;6.588;2024-02-26T14:44:54;90686.63;;;5.65;42.20
67377;BME280;54261;46.086;6.588;2024-02-26T14:49:56;90688.16;;;8.25;39.22
67377;BME280;54261;46.086;6.588;2024-02-26T14:54:58;90694.97;;;7.45;40.55
67377;BME280;54261;46.086;6.588;2024-02-26T15:00:00;90688.66;;;5.93;43.10
67377;BME280;54261;46.086;6.588;2024-02-26T15:05:03;90646.94;;;8.77;36.10
67377;BME280;54261;46.086;6.588;2024-02-26T15:10:06;90672.97;;;5.33;41.36
67377;BME280;54261;46.086;6.588;2024-02-26T15:15:08;90677.56;;;5.91;41.68
67377;BME280;54261;46.086;6.588;2024-02-26T15:20:10;90682.16;;;5.57;43.35
67377;BME280;54261;46.086;6.588;2024-02-26T15:25:13;90684.63;;;5.29;41.68
67377;BME280;54261;46.086;6.588;2024-02-26T15:30:17;90677.66;;;8.00;39.05
67377;BME280;54261;46.086;6.588;2024-02-26T15:35:18;90685.84;;;8.75;36.85
67377;BME280;54261;46.086;6.588;2024-02-26T15:40:22;90685.00;;;6.10;42.62
67377;BME280;54261;46.086;6.588;2024-02-26T15:45:24;90671.53;;;5.02;43.73
67377;BME280;54261;46.086;6.588;2024-02-26T15:50:26;90690.09;;;5.45;43.84
67377;BME280;54261;46.086;6.588;2024-02-26T15:55:28;90687.94;;;6.71;43.55
67377;BME280;54261;46.086;6.588;2024-02-26T16:00:30;90696.59;;;6.68;45.40
67377;BME280;54261;46.086;6.588;2024-02-26T16:05:32;90708.75;;;6.53;46.48
67377;BME280;54261;46.086;6.588;2024-02-26T16:10:34;90697.41;;;6.44;46.82
67377;BME280;54261;46.086;6.588;2024-02-26T16:15:36;90727.50;;;5.27;48.94
67377;BME280;54261;46.086;6.588;2024-02-26T16:20:38;90745.78;;;5.50;49.63
67377;BME280;54261;46.086;6.588;2024-02-26T16:25:40;90744.59;;;7.34;45.76
67377;BME280;54261;46.086;6.588;2024-02-26T16:30:42;90751.78;;;7.46;44.56
67377;BME280;54261;46.086;6.588;2024-02-26T16:35:44;90723.19;;;8.71;41.44
67377;BME280;54261;46.086;6.588;2024-02-26T16:40:46;90761.91;;;9.10;41.47
67377;BME280;54261;46.086;6.588;2024-02-26T16:45:48;90771.59;;;8.82;42.08
67377;BME280;54261;46.086;6.588;2024-02-26T16:50:50;90783.72;;;6.89;44.89
67377;BME280;54261;46.086;6.588;2024-02-26T16:55:52;90748.84;;;7.79;43.54
67377;BME280;54261;46.086;6.588;2024-02-26T17:00:54;90769.28;;;6.90;44.77
67377;BME280;54261;46.086;6.588;2024-02-26T17:05:56;90786.91;;;6.57;45.99
67377;BME280;54261;46.086;6.588;2024-02-26T17:11:00;90796.56;;;6.49;46.62
67377;BME280;54261;46.086;6.588;2024-02-26T17:16:02;90787.22;;;8.16;43.52
67377;BME280;54261;46.086;6.588;2024-02-26T17:21:04;90816.84;;;9.79;41.08
67377;BME280;54261;46.086;6.588;2024-02-26T17:26:06;90820.78;;;10.67;38.28
67377;BME280;54261;46.086;6.588;2024-02-26T17:31:11;90831.31;;;10.13;38.00
67377;BME280;54261;46.086;6.588;2024-02-26T17:36:13;90839.94;;;10.03;38.19
67377;BME280;54261;46.086;6.588;2024-02-26T17:41:16;90841.03;;;8.62;40.41
67377;BME280;54261;46.086;6.588;2024-02-26T17:46:18;90838.63;;;8.57;40.20
67377;BME280;54261;46.086;6.588;2024-02-26T17:51:19;90832.44;;;7.80;41.62
67377;BME280;54261;46.086;6.588;2024-02-26T17:56:21;90872.88;;;7.54;42.43
67377;BME280;54261;46.086;6.588;2024-02-26T18:01:23;90864.72;;;7.21;42.33
67377;BME280;54261;46.086;6.588;2024-02-26T18:06:25;90888.28;;;7.32;41.84
67377;BME280;54261;46.086;6.588;2024-02-26T18:11:27;90904.72;;;5.83;42.10
67377;BME280;54261;46.086;6.588;2024-02-26T18:16:31;90910.34;;;5.09;47.67
67377;BME280;54261;46.086;6.588;2024-02-26T18:21:33;90925.94;;;4.33;49.98
67377;BME280;54261;46.086;6.588;2024-02-26T18:26:36;90928.28;;;4.34;52.90
67377;BME280;54261;46.086;6.588;2024-02-26T18:31:37;90920.50;;;6.43;45.40
67377;BME280;54261;46.086;6.588;2024-02-26T18:36:43;90924.03;;;5.29;49.78
67377;BME280;54261;46.086;6.588;2024-02-26T18:41:45;90935.03;;;5.18;50.31
67377;BME280;54261;46.086;6.588;2024-02-26T18:46:47;90946.75;;;5.77;48.99
67377;BME280;54261;46.086;6.588;2024-02-26T18:51:48;90949.66;;;4.38;50.36
67377;BME280;54261;46.086;6.588;2024-02-26T18:56:50;90955.47;;;4.31;53.25
67377;BME280;54261;46.086;6.588;2024-02-26T19:01:52;90958.41;;;6.28;46.79
67377;BME280;54261;46.086;6.588;2024-02-26T19:06:54;90961.66;;;5.39;47.66
67377;BME280;54261;46.086;6.588;2024-02-26T19:11:57;90958.84;;;5.75;47.47
67377;BME280;54261;46.086;6.588;2024-02-26T19:16:58;90960.19;;;6.02;46.47
67377;BME280;54261;46.086;6.588;2024-02-26T19:22:02;90964.03;;;4.54;48.08
67377;BME280;54261;46.086;6.588;2024-02-26T19:27:04;90967.50;;;3.58;51.07
67377;BME280;54261;46.086;6.588;2024-02-26T19:32:06;90983.75;;;4.18;48.67
67377;BME280;54261;46.086;6.588;2024-02-26T19:37:12;90999.75;;;6.34;43.33
67377;BME280;54261;46.086;6.588;2024-02-26T19:42:14;91009.44;;;5.66;43.75
67377;BME280;54261;46.086;6.588;2024-02-26T19:47:18;91018.53;;;4.87;43.75
67377;BME280;54261;46.086;6.588;2024-02-26T19:52:20;91034.53;;;5.17;40.68
67377;BME280;54261;46.086;6.588;2024-02-26T19:57:22;91037.44;;;4.86;40.86
67377;BME280;54261;46.086;6.588;2024-02-26T20:02:23;91045.75;;;4.75;40.70
67377;BME280;54261;46.086;6.588;2024-02-26T20:07:25;91047.34;;;5.24;39.48
67377;BME280;54261;46.086;6.588;2024-02-26T20:12:28;91034.78;;;3.97;42.96
67377;BME280;54261;46.086;6.588;2024-02-26T20:17:30;91041.34;;;3.24;44.77
67377;BME280;54261;46.086;6.588;2024-02-26T20:22:31;91057.03;;;3.43;46.25
67377;BME280;54261;46.086;6.588;2024-02-26T20:27:33;91047.97;;;4.11;42.63
67377;BME280;54261;46.086;6.588;2024-02-26T20:32:37;91058.03;;;5.06;41.88
67377;BME280;54261;46.086;6.588;2024-02-26T20:37:38;91081.44;;;4.39;43.38
67377;BME280;54261;46.086;6.588;2024-02-26T20:42:42;91081.91;;;3.65;43.56
67377;BME280;54261;46.086;6.588;2024-02-26T20:47:44;91080.06;;;3.83;45.61
67377;BME280;54261;46.086;6.588;2024-02-26T20:52:46;91083.84;;;3.91;44.93
67377;BME280;54261;46.086;6.588;2024-02-26T20:57:48;91083.69;;;3.07;45.49
67377;BME280;54261;46.086;6.588;2024-02-26T21:02:49;91092.66;;;3.20;45.00
67377;BME280;54261;46.086;6.588;2024-02-26T21:07:52;91090.94;;;3.64;42.00
67377;BME280;54261;46.086;6.588;2024-02-26T21:12:53;91100.03;;;4.48;40.85
67377;BME280;54261;46.086;6.588;2024-02-26T21:17:55;91095.97;;;3.66;42.54
67377;BME280;54261;46.086;6.588;2024-02-26T21:22:57;91103.25;;;1.92;46.72
67377;BME280;54261;46.086;6.588;2024-02-26T21:27:59;91105.91;;;1.36;49.46
67377;BME280;54261;46.086;6.588;2024-02-26T21:33:02;91121.97;;;2.69;47.61
67377;BME280;54261;46.086;6.588;2024-02-26T21:38:05;91124.47;;;3.20;46.49
67377;BME280;54261;46.086;6.588;2024-02-26T21:43:10;91131.88;;;2.26;47.81
67377;BME280;54261;46.086;6.588;2024-02-26T21:48:12;91141.25;;;2.10;48.50
67377;BME280;54261;46.086;6.588;2024-02-26T21:53:15;91139.31;;;1.45;49.16
67377;BME280;54261;46.086;6.588;2024-02-26T21:58:17;91141.66;;;1.33;50.61
67377;BME280;54261;46.086;6.588;2024-02-26T22:03:19;91127.09;;;2.42;48.76
67377;BME280;54261;46.086;6.588;2024-02-26T22:08:21;91147.25;;;2.38;47.65
67377;BME280;54261;46.086;6.588;2024-02-26T22:13:23;91144.84;;;2.65;47.28
67377;BME280;54261;46.086;6.588;2024-02-26T22:18:25;91162.94;;;3.40;46.12
67377;BME280;54261;46.086;6.588;2024-02-26T22:23:27;91139.44;;;3.56;44.25
67377;BME280;54261;46.086;6.588;2024-02-26T22:28:29;91161.25;;;2.90;45.76
67377;BME280;54261;46.086;6.588;2024-02-26T22:33:31;91144.38;;;2.85;44.86
67377;BME280;54261;46.086;6.588;2024-02-26T22:38:33;91137.66;;;3.42;46.09
67377;BME280;54261;46.086;6.588;2024-02-26T22:43:35;91160.94;;;3.14;45.49
67377;BME280;54261;46.086;6.588;2024-02-26T22:48:37;91171.75;;;2.81;46.68
67377;BME280;54261;46.086;6.588;2024-02-26T22:53:39;91170.91;;;2.35;45.85
67377;BME280;54261;46.086;6.588;2024-02-26T22:58:42;91182.00;;;2.23;47.49
67377;BME280;54261;46.086;6.588;2024-02-26T23:03:43;91173.31;;;1.94;47.59
67377;BME280;54261;46.086;6.588;2024-02-26T23:08:46;91189.13;;;3.33;47.51
67377;BME280;54261;46.086;6.588;2024-02-26T23:13:48;91194.94;;;2.52;47.99
67377;BME280;54261;46.086;6.588;2024-02-26T23:18:50;91196.59;;;2.85;46.08
67377;BME280;54261;46.086;6.588;2024-02-26T23:23:52;91194.78;;;3.40;44.82
67377;BME280;54261;46.086;6.588;2024-02-26T23:28:54;91199.25;;;4.34;42.29
67377;BME280;54261;46.086;6.588;2024-02-26T23:33:56;91193.03;;;3.67;43.00
67377;BME280;54261;46.086;6.588;2024-02-26T23:38:59;91194.94;;;4.07;42.31
67377;BME280;54261;46.086;6.588;2024-02-26T23:44:02;91202.56;;;3.36;44.10
67377;BME280;54261;46.086;6.588;2024-02-26T23:49:04;91203.38;;;4.76;41.45
67377;BME280;54261;46.086;6.588;2024-02-26T23:54:08;91201.00;;;3.12;44.42
67377;BME280;54261;46.086;6.588;2024-02-26T23:59:10;91210.16;;;4.33;43.69
